Steamboat Springs, CO

1:39 PM MDT on March 27, 2017 (GMT -0600)
Steamboat Springs-Adams

Weather History for KSBS - May, 2013

Change the Weather History Date:

Saturday, May 25, 2013

  Actual Average Record
Temperature  
Mean Temperature 56 °F -  
Max Temperature 77 °F 67 °F 82 °F (1985)
Min Temperature 35 °F 32 °F 22 °F (1990)
Degree Days  
Heating Degree Days 9    
Growing Degree Days 6 (Base 50)    
Moisture  
Dew Point 17 °F    
Average Humidity 29    
Maximum Humidity 71    
Minimum Humidity 5    
Precipitation  
Precipitation 0.00 in - - ()
Sea Level Pressure  
Sea Level Pressure 30.07 in    
Wind  
Wind Speed 2 mph (SW)    
Max Wind Speed 15 mph    
Max Gust Speed 20 mph    
Visibility 10 miles    
Events      
Averages and records for this station are not official NWS values.
T = Trace of Precipitation, MM = Missing Value Source: NWS Daily Summary

Daily Weather History Graph

Daily Weather History Graph

Search for Another Location

Airport or City:

Trip Planner

Search our weather history database for the weather conditions in past years. The results will help you decide how hot, cold, wet, or windy it might be!

Date:

Astronomy

May. 25, 2013 Rise Set
Actual Time 5:42 AM MDT 8:26 PM MDT
Civil Twilight 5:10 AM MDT 8:58 PM MDT
Nautical Twilight 4:30 AM MDT 9:38 PM MDT
Astronomical Twilight 3:45 AM MDT 10:24 PM MDT
Moon 9:17 PM MDT (5/25) 6:12 AM MDT (5/25)
Length of Visible Light 15h 47m
Length of Day
14h 43m
Waxing Gibbous, 99% of the Moon is Illuminated
May 25
Waxing Gibbous
May 31
Last Quarter
Jun 8
New
Jun 16
First Quarter
Jun 23
Full

Hourly Weather History & Observations

Time (MDT) Temp. Windchill Dew Point Humidity Pressure Visibility Wind Dir Wind Speed Gust Speed Precip Events Conditions
12:15 AM 47.3 °F - 25.9 °F 43% 30.10 in 10.0 mi Calm Calm - N/A   Clear
12:35 AM 47.7 °F - 24.4 °F 40% 30.10 in 10.0 mi Calm Calm - N/A   Clear
12:55 AM 43.2 °F - 26.4 °F 52% 30.09 in 10.0 mi Calm Calm - N/A   Clear
1:15 AM 43.9 °F - 26.2 °F 50% 30.09 in 10.0 mi Calm Calm - N/A   Clear
1:35 AM 38.7 °F 35.2 °F 29.8 °F 71% 30.09 in 10.0 mi NE 4.6 mph - N/A   Clear
1:55 AM 42.1 °F - 27.3 °F 56% 30.08 in 10.0 mi Calm Calm - N/A   Clear
2:15 AM 43.2 °F 41.5 °F 25.0 °F 49% 30.08 in 10.0 mi East 3.5 mph - N/A   Clear
2:35 AM 40.3 °F - 27.7 °F 61% 30.08 in 10.0 mi Calm Calm - N/A   Clear
2:55 AM 39.7 °F - 26.8 °F 60% 30.08 in 10.0 mi Calm Calm - N/A   Clear
3:15 AM 41.5 °F - 24.8 °F 51% 30.08 in 10.0 mi Calm Calm - N/A   Clear
3:35 AM 40.6 °F - 25.0 °F 54% 30.09 in 10.0 mi Calm Calm - N/A   Clear
3:55 AM 39.9 °F - 25.0 °F 55% 30.09 in 10.0 mi Calm Calm - N/A   Clear
4:15 AM 39.2 °F - 24.8 °F 56% 30.09 in 10.0 mi Calm Calm - N/A   Clear
4:35 AM 37.4 °F - 26.6 °F 65% 30.09 in 10.0 mi Calm Calm - N/A   Clear
4:55 AM 38.5 °F - 25.5 °F 60% 30.10 in 10.0 mi Calm Calm - N/A   Clear
5:15 AM 37.6 °F - 26.1 °F 63% 30.10 in 10.0 mi Calm Calm - N/A   Clear
5:35 AM 35.8 °F - 26.4 °F 69% 30.10 in 10.0 mi Calm Calm - N/A   Clear
5:55 AM 37.8 °F - 24.8 °F 60% 30.10 in 10.0 mi Calm Calm - N/A   Clear
6:15 AM 37.0 °F - 24.4 °F 60% 30.11 in 10.0 mi Calm Calm - N/A   Clear
6:35 AM 37.8 °F - 26.4 °F 64% 30.11 in 10.0 mi Calm Calm - N/A   Clear
6:55 AM 39.2 °F - 27.0 °F 62% 30.11 in 10.0 mi Calm Calm - N/A   Clear
7:15 AM 41.7 °F - 25.7 °F 53% 30.11 in 10.0 mi Calm Calm - N/A   Clear
7:35 AM 43.7 °F - 24.3 °F 46% 30.11 in 10.0 mi Calm Calm - N/A   Clear
7:55 AM 46.2 °F - 25.5 °F 44% 30.11 in 10.0 mi Calm Calm - N/A   Clear
8:15 AM 47.5 °F - 25.9 °F 43% 30.12 in 10.0 mi Calm Calm - N/A   Clear
8:35 AM 50.9 °F - 25.7 °F 38% 30.11 in 10.0 mi Calm Calm - N/A   Clear
8:55 AM 54.5 °F - 23.4 °F 30% 30.11 in 10.0 mi Calm Calm - N/A   Clear
9:15 AM 57.0 °F - 24.8 °F 29% 30.10 in 10.0 mi Calm Calm - N/A   Clear
9:35 AM 59.9 °F - 21.0 °F 22% 30.10 in 10.0 mi Calm Calm - N/A   Clear
9:55 AM 62.4 °F - 20.8 °F 20% 30.10 in 10.0 mi Calm Calm - N/A   Clear
10:15 AM 63.1 °F - 22.3 °F 21% 30.10 in 10.0 mi Calm Calm - N/A   Clear
10:35 AM 66.2 °F - 21.0 °F 18% 30.09 in 10.0 mi SW 4.6 mph - N/A   Clear
10:55 AM 68.2 °F - 16.0 °F 14% 30.09 in 10.0 mi West 4.6 mph - N/A   Clear
11:15 AM 68.5 °F - 9.0 °F 10% 30.09 in 10.0 mi WSW 9.2 mph - N/A   Clear
11:35 AM 69.3 °F - 11.8 °F 11% 30.09 in 10.0 mi West 4.6 mph - N/A   Clear
11:55 AM 69.4 °F - 12.6 °F 11% 30.09 in 10.0 mi WSW 4.6 mph - N/A   Clear
12:15 PM 71.6 °F - 12.2 °F 10% 30.09 in 10.0 mi SW 6.9 mph - N/A   Clear
12:35 PM 72.3 °F - 9.7 °F 9% 30.08 in 10.0 mi South 3.5 mph - N/A   Clear
12:55 PM 72.5 °F - 7.7 °F 8% 30.07 in 10.0 mi West 8.1 mph - N/A   Clear
1:15 PM 72.9 °F - 7.7 °F 8% 30.07 in 10.0 mi Calm Calm - N/A   Clear
1:35 PM 73.0 °F - 5.4 °F 7% 30.07 in 10.0 mi SW 3.5 mph - N/A   Clear
1:55 PM 73.6 °F - 6.4 °F 7% 30.06 in 10.0 mi West 4.6 mph - N/A   Clear
2:15 PM 75.6 °F - 6.4 °F 7% 30.06 in 10.0 mi WSW 15.0 mph 19.6 mph N/A   Clear
2:35 PM 75.6 °F - 2.1 °F 6% 30.05 in 10.0 mi WSW 11.5 mph - N/A   Clear
2:55 PM 75.7 °F - 2.3 °F 6% 30.05 in 10.0 mi WSW 13.8 mph 18.4 mph N/A   Clear
3:15 PM 76.1 °F - 0.9 °F 5% 30.05 in 10.0 mi SSW 10.4 mph - N/A   Clear
3:35 PM 75.2 °F - 1.9 °F 6% 30.05 in 10.0 mi SSW 11.5 mph 19.6 mph N/A   Clear
3:55 PM 76.3 °F - 0.3 °F 5% 30.05 in 10.0 mi SSW 11.5 mph 16.1 mph N/A   Clear
4:15 PM 76.5 °F - -2.4 °F 5% 30.05 in 10.0 mi SW 9.2 mph - N/A   Clear
4:35 PM 76.5 °F - 2.7 °F 6% 30.04 in 10.0 mi SW 10.4 mph 17.3 mph N/A   Clear
4:55 PM 77.0 °F - 3.0 °F 6% 30.04 in 10.0 mi SSW 8.1 mph - N/A   Clear
5:15 PM 76.6 °F - 3.7 °F 6% 30.03 in 10.0 mi SSW 9.2 mph - N/A   Clear
5:35 PM 75.6 °F - -0.6 °F 5% 30.03 in 10.0 mi SSE 8.1 mph - N/A   Clear
5:55 PM 72.1 °F - 8.2 °F 8% 30.02 in 10.0 mi SSW 5.8 mph - N/A   Clear
6:15 PM 73.8 °F - 7.7 °F 8% 30.02 in 10.0 mi SSE 9.2 mph - N/A   Clear
6:35 PM 75.2 °F - 9.7 °F 8% 30.02 in 10.0 mi SW 3.5 mph - N/A   Clear
6:55 PM 74.7 °F - 7.3 °F 7% 30.02 in 10.0 mi WSW 4.6 mph - N/A   Clear
7:15 PM 72.3 °F - 18.1 °F 13% 30.02 in 10.0 mi West 8.1 mph - N/A   Clear
7:35 PM 70.3 °F - 18.1 °F 14% 30.03 in 10.0 mi West 3.5 mph - N/A   Clear
7:55 PM 69.8 °F - 15.3 °F 12% 30.03 in 10.0 mi Calm Calm - N/A   Clear
8:15 PM 67.1 °F - 15.3 °F 14% 30.04 in 10.0 mi SE 3.5 mph - N/A   Clear
8:35 PM 64.4 °F - 19.9 °F 18% 30.04 in 10.0 mi Calm Calm - N/A   Clear
8:55 PM 64.0 °F - 17.2 °F 16% 30.04 in 10.0 mi Calm Calm - N/A   Clear
9:15 PM 60.4 °F - 20.5 °F 21% 30.04 in 10.0 mi Calm Calm - N/A   Clear
9:35 PM 58.8 °F - 21.9 °F 24% 30.05 in 10.0 mi ESE 8.1 mph - N/A   Clear
9:55 PM 55.9 °F - 22.8 °F 28% 30.06 in 10.0 mi South 3.5 mph - N/A   Clear
10:15 PM 57.7 °F - 19.4 °F 23% 30.06 in 10.0 mi Calm Calm - N/A   Clear
10:35 PM 54.0 °F - 22.1 °F 29% 30.06 in 10.0 mi SE 5.8 mph - N/A   Clear
10:55 PM 54.3 °F - 22.1 °F 29% 30.06 in 10.0 mi SE 8.1 mph - N/A   Clear
11:15 PM 54.0 °F - 21.6 °F 28% 30.07 in 10.0 mi Calm Calm - N/A   Clear
11:35 PM 53.4 °F - 22.5 °F 30% 30.07 in 10.0 mi Calm Calm - N/A   Clear
11:55 PM 52.3 °F - 24.1 °F 33% 30.06 in 10.0 mi Calm Calm - N/A   Clear